Terminal Aerodrome Forecast
Issued by NWS

Current Version | Previous Version | Graphics & Text | Print | Product List | Glossary On
Versions: 1 2 3 4 5 6 7 8 9 10 11 12 13 14
000
FTUS41 KPBZ 251100
TAFHLG
TAF
KHLG 251139Z 2512/2612 25014G21KT P6SM OVC025
     FM252200 24009KT P6SM OVC050
     FM260100 21008KT P6SM FEW250=

USA.gov is the U.S. government's official web portal to all federal, state and local government web resources and services.